sensor_id;sensor_type;location;lat;lon;timestamp;pressure;altitude;pressure_sealevel;temperature;humidity
17521;BME280;8878;-33.370;-70.552;2023-01-16T00:01:03;91944.63;;;29.52;27.51
17521;BME280;8878;-33.370;-70.552;2023-01-16T00:03:32;91946.56;;;29.70;26.52
17521;BME280;8878;-33.370;-70.552;2023-01-16T00:06:02;91941.50;;;29.72;26.68
17521;BME280;8878;-33.370;-70.552;2023-01-16T00:08:32;91945.00;;;29.69;27.42
17521;BME280;8878;-33.370;-70.552;2023-01-16T00:11:01;91951.22;;;29.58;28.20
17521;BME280;8878;-33.370;-70.552;2023-01-16T00:13:32;91957.81;;;29.43;28.75
17521;BME280;8878;-33.370;-70.552;2023-01-16T00:16:01;91953.13;;;29.37;28.27
17521;BME280;8878;-33.370;-70.552;2023-01-16T00:18:34;91950.31;;;29.01;28.06
17521;BME280;8878;-33.370;-70.552;2023-01-16T00:21:03;91954.22;;;29.04;29.09
17521;BME280;8878;-33.370;-70.552;2023-01-16T00:23:32;91953.31;;;28.71;28.75
17521;BME280;8878;-33.370;-70.552;2023-01-16T00:26:05;91966.56;;;28.80;29.29
17521;BME280;8878;-33.370;-70.552;2023-01-16T00:28:36;91963.22;;;28.35;29.25
17521;BME280;8878;-33.370;-70.552;2023-01-16T00:31:06;91964.28;;;28.17;29.66
17521;BME280;8878;-33.370;-70.552;2023-01-16T00:33:35;91970.66;;;28.49;29.11
17521;BME280;8878;-33.370;-70.552;2023-01-16T00:36:05;91970.66;;;28.49;29.11
17521;BME280;8878;-33.370;-70.552;2023-01-16T00:38:35;91965.91;;;28.25;29.20
17521;BME280;8878;-33.370;-70.552;2023-01-16T00:41:04;91969.44;;;28.36;29.63
17521;BME280;8878;-33.370;-70.552;2023-01-16T00:43:36;91976.22;;;28.09;29.95
17521;BME280;8878;-33.370;-70.552;2023-01-16T00:46:05;91976.28;;;27.61;30.46
17521;BME280;8878;-33.370;-70.552;2023-01-16T00:48:38;91981.19;;;27.52;31.02
17521;BME280;8878;-33.370;-70.552;2023-01-16T00:51:08;91980.09;;;27.16;31.63
17521;BME280;8878;-33.370;-70.552;2023-01-16T00:53:39;91977.19;;;27.35;31.44
17521;BME280;8878;-33.370;-70.552;2023-01-16T00:56:10;91982.22;;;27.37;31.42
17521;BME280;8878;-33.370;-70.552;2023-01-16T00:58:47;91985.50;;;27.53;31.16
17521;BME280;8878;-33.370;-70.552;2023-01-16T01:01:16;91983.91;;;27.11;32.11
17521;BME280;8878;-33.370;-70.552;2023-01-16T01:03:45;91986.72;;;26.88;32.44
17521;BME280;8878;-33.370;-70.552;2023-01-16T01:06:15;91985.47;;;27.12;32.09
17521;BME280;8878;-33.370;-70.552;2023-01-16T01:08:44;91985.63;;;27.30;32.27
17521;BME280;8878;-33.370;-70.552;2023-01-16T01:11:14;91988.63;;;27.18;32.40
17521;BME280;8878;-33.370;-70.552;2023-01-16T01:13:46;91989.31;;;27.52;32.19
17521;BME280;8878;-33.370;-70.552;2023-01-16T01:16:15;91995.47;;;27.45;32.39
17521;BME280;8878;-33.370;-70.552;2023-01-16T01:18:44;91992.84;;;27.52;33.01
17521;BME280;8878;-33.370;-70.552;2023-01-16T01:21:13;91994.25;;;27.43;32.72
17521;BME280;8878;-33.370;-70.552;2023-01-16T01:23:43;92000.25;;;27.55;32.57
17521;BME280;8878;-33.370;-70.552;2023-01-16T01:26:14;91995.47;;;27.05;32.80
17521;BME280;8878;-33.370;-70.552;2023-01-16T01:28:45;91996.78;;;26.55;33.76
17521;BME280;8878;-33.370;-70.552;2023-01-16T01:31:15;91996.63;;;26.74;33.36
17521;BME280;8878;-33.370;-70.552;2023-01-16T01:33:45;91997.38;;;27.04;33.76
17521;BME280;8878;-33.370;-70.552;2023-01-16T01:36:15;92001.56;;;26.98;33.29
17521;BME280;8878;-33.370;-70.552;2023-01-16T01:38:45;92008.31;;;26.51;34.13
17521;BME280;8878;-33.370;-70.552;2023-01-16T01:41:19;92007.69;;;26.05;34.73
17521;BME280;8878;-33.370;-70.552;2023-01-16T01:43:51;92010.94;;;26.44;34.39
17521;BME280;8878;-33.370;-70.552;2023-01-16T01:46:26;92003.34;;;26.87;33.12
17521;BME280;8878;-33.370;-70.552;2023-01-16T01:49:00;91998.44;;;26.96;33.17
17521;BME280;8878;-33.370;-70.552;2023-01-16T01:51:34;91999.97;;;26.94;35.31
17521;BME280;8878;-33.370;-70.552;2023-01-16T01:54:10;92004.91;;;26.88;35.50
17521;BME280;8878;-33.370;-70.552;2023-01-16T01:56:42;92010.00;;;26.93;34.66
17521;BME280;8878;-33.370;-70.552;2023-01-16T01:59:17;92013.69;;;26.78;36.25
17521;BME280;8878;-33.370;-70.552;2023-01-16T02:01:48;92008.09;;;26.64;36.40
17521;BME280;8878;-33.370;-70.552;2023-01-16T02:04:19;92011.81;;;26.52;36.25
17521;BME280;8878;-33.370;-70.552;2023-01-16T02:06:55;92001.75;;;26.49;37.38
17521;BME280;8878;-33.370;-70.552;2023-01-16T02:09:26;92006.09;;;26.27;36.52
17521;BME280;8878;-33.370;-70.552;2023-01-16T02:11:56;92007.00;;;26.12;36.29
17521;BME280;8878;-33.370;-70.552;2023-01-16T02:14:31;92001.81;;;26.00;37.71
17521;BME280;8878;-33.370;-70.552;2023-01-16T02:17:05;91998.69;;;25.98;38.26
17521;BME280;8878;-33.370;-70.552;2023-01-16T02:19:58;91999.00;;;25.93;37.95
17521;BME280;8878;-33.370;-70.552;2023-01-16T02:26:14;92003.19;;;25.90;38.37
17521;BME280;8878;-33.370;-70.552;2023-01-16T02:31:58;91994.56;;;25.81;38.80
17521;BME280;8878;-33.370;-70.552;2023-01-16T02:34:48;91995.13;;;25.67;36.56
17521;BME280;8878;-33.370;-70.552;2023-01-16T02:37:31;91990.69;;;25.79;39.33
17521;BME280;8878;-33.370;-70.552;2023-01-16T02:40:16;91990.63;;;25.75;39.66
17521;BME280;8878;-33.370;-70.552;2023-01-16T02:42:56;91985.19;;;25.52;37.73
17521;BME280;8878;-33.370;-70.552;2023-01-16T02:45:31;91983.44;;;25.60;39.78
17521;BME280;8878;-33.370;-70.552;2023-01-16T02:48:09;91986.25;;;25.67;39.41
17521;BME280;8878;-33.370;-70.552;2023-01-16T02:50:47;91981.63;;;25.67;39.23
17521;BME280;8878;-33.370;-70.552;2023-01-16T02:53:25;91977.94;;;25.56;39.06
17521;BME280;8878;-33.370;-70.552;2023-01-16T02:55:58;91987.66;;;25.38;39.94
17521;BME280;8878;-33.370;-70.552;2023-01-16T02:58:32;91984.94;;;25.34;39.87
17521;BME280;8878;-33.370;-70.552;2023-01-16T03:01:02;91988.34;;;25.31;39.69
17521;BME280;8878;-33.370;-70.552;2023-01-16T03:03:45;91978.06;;;25.18;39.53
17521;BME280;8878;-33.370;-70.552;2023-01-16T03:06:31;91979.56;;;25.15;40.55
17521;BME280;8878;-33.370;-70.552;2023-01-16T03:09:30;91975.44;;;24.99;40.47
17521;BME280;8878;-33.370;-70.552;2023-01-16T03:12:21;91985.94;;;24.84;42.30
17521;BME280;8878;-33.370;-70.552;2023-01-16T03:14:59;91980.25;;;24.70;42.49
17521;BME280;8878;-33.370;-70.552;2023-01-16T03:17:40;91981.06;;;24.71;42.44
17521;BME280;8878;-33.370;-70.552;2023-01-16T03:20:27;91988.66;;;24.65;43.10
17521;BME280;8878;-33.370;-70.552;2023-01-16T03:23:06;91978.91;;;24.61;42.92
17521;BME280;8878;-33.370;-70.552;2023-01-16T03:25:45;91978.13;;;24.60;42.92
17521;BME280;8878;-33.370;-70.552;2023-01-16T03:28:22;91976.84;;;24.54;43.40
17521;BME280;8878;-33.370;-70.552;2023-01-16T03:31:03;91977.59;;;24.51;42.29
17521;BME280;8878;-33.370;-70.552;2023-01-16T03:33:39;91968.63;;;24.47;42.50
17521;BME280;8878;-33.370;-70.552;2023-01-16T03:36:15;91966.38;;;24.49;42.28
17521;BME280;8878;-33.370;-70.552;2023-01-16T03:38:51;91967.84;;;24.46;41.34
17521;BME280;8878;-33.370;-70.552;2023-01-16T03:41:24;91967.50;;;24.48;42.72
17521;BME280;8878;-33.370;-70.552;2023-01-16T03:43:59;91970.19;;;24.48;41.73
17521;BME280;8878;-33.370;-70.552;2023-01-16T03:46:32;91961.13;;;24.56;40.70
17521;BME280;8878;-33.370;-70.552;2023-01-16T03:49:08;91960.94;;;24.68;39.76
17521;BME280;8878;-33.370;-70.552;2023-01-16T03:51:44;91964.06;;;24.70;40.06
17521;BME280;8878;-33.370;-70.552;2023-01-16T03:54:22;91961.19;;;24.40;39.25
17521;BME280;8878;-33.370;-70.552;2023-01-16T03:57:00;91964.09;;;24.51;40.67
17521;BME280;8878;-33.370;-70.552;2023-01-16T03:59:32;91964.66;;;24.60;40.22
17521;BME280;8878;-33.370;-70.552;2023-01-16T04:02:06;91962.69;;;24.57;40.64
17521;BME280;8878;-33.370;-70.552;2023-01-16T04:04:41;91958.34;;;24.52;41.47
17521;BME280;8878;-33.370;-70.552;2023-01-16T04:07:18;91946.72;;;24.48;42.03
17521;BME280;8878;-33.370;-70.552;2023-01-16T04:09:52;91956.00;;;24.32;41.49
17521;BME280;8878;-33.370;-70.552;2023-01-16T04:12:24;91950.28;;;24.17;41.98
17521;BME280;8878;-33.370;-70.552;2023-01-16T04:14:59;91937.78;;;24.09;42.13
17521;BME280;8878;-33.370;-70.552;2023-01-16T04:17:29;91939.44;;;24.14;42.02
17521;BME280;8878;-33.370;-70.552;2023-01-16T04:19:59;91939.28;;;24.07;42.30
17521;BME280;8878;-33.370;-70.552;2023-01-16T04:22:30;91940.78;;;24.04;42.00
17521;BME280;8878;-33.370;-70.552;2023-01-16T04:25:00;91947.88;;;23.93;42.71
17521;BME280;8878;-33.370;-70.552;2023-01-16T04:27:30;91939.06;;;23.96;42.84
17521;BME280;8878;-33.370;-70.552;2023-01-16T04:29:59;91936.78;;;23.79;42.90
17521;BME280;8878;-33.370;-70.552;2023-01-16T04:32:29;91929.97;;;23.85;42.77
17521;BME280;8878;-33.370;-70.552;2023-01-16T04:34:58;91924.75;;;23.92;43.28
17521;BME280;8878;-33.370;-70.552;2023-01-16T04:37:29;91922.44;;;23.75;43.33
17521;BME280;8878;-33.370;-70.552;2023-01-16T04:39:58;91925.75;;;23.68;44.06
17521;BME280;8878;-33.370;-70.552;2023-01-16T04:42:27;91920.06;;;23.54;43.76
17521;BME280;8878;-33.370;-70.552;2023-01-16T04:44:57;91919.88;;;23.63;44.50
17521;BME280;8878;-33.370;-70.552;2023-01-16T04:47:26;91907.53;;;23.62;42.74
17521;BME280;8878;-33.370;-70.552;2023-01-16T04:49:55;91907.81;;;23.57;43.38
17521;BME280;8878;-33.370;-70.552;2023-01-16T04:52:25;91902.66;;;23.67;42.79
17521;BME280;8878;-33.370;-70.552;2023-01-16T04:54:56;91898.69;;;23.80;42.16
17521;BME280;8878;-33.370;-70.552;2023-01-16T04:57:25;91892.47;;;23.76;42.00
17521;BME280;8878;-33.370;-70.552;2023-01-16T04:59:54;91898.03;;;23.68;43.16
17521;BME280;8878;-33.370;-70.552;2023-01-16T05:02:24;91894.78;;;23.59;42.75
17521;BME280;8878;-33.370;-70.552;2023-01-16T05:04:54;91890.53;;;23.58;42.70
17521;BME280;8878;-33.370;-70.552;2023-01-16T05:07:23;91894.00;;;23.58;42.66
17521;BME280;8878;-33.370;-70.552;2023-01-16T05:09:53;91890.09;;;23.56;42.55
17521;BME280;8878;-33.370;-70.552;2023-01-16T05:12:24;91886.47;;;23.48;43.57
17521;BME280;8878;-33.370;-70.552;2023-01-16T05:14:53;91883.75;;;23.48;43.79
17521;BME280;8878;-33.370;-70.552;2023-01-16T05:17:23;91885.31;;;23.33;44.24
17521;BME280;8878;-33.370;-70.552;2023-01-16T05:19:53;91877.94;;;23.30;44.50
17521;BME280;8878;-33.370;-70.552;2023-01-16T05:22:22;91881.41;;;23.31;44.30
17521;BME280;8878;-33.370;-70.552;2023-01-16T05:24:51;91882.47;;;23.26;44.61
17521;BME280;8878;-33.370;-70.552;2023-01-16T05:27:21;91873.78;;;23.17;44.07
17521;BME280;8878;-33.370;-70.552;2023-01-16T05:29:52;91873.38;;;23.15;44.59
17521;BME280;8878;-33.370;-70.552;2023-01-16T05:32:21;91875.75;;;23.01;45.04
17521;BME280;8878;-33.370;-70.552;2023-01-16T05:34:50;91867.84;;;22.92;45.24
17521;BME280;8878;-33.370;-70.552;2023-01-16T05:37:19;91878.00;;;22.99;44.60
17521;BME280;8878;-33.370;-70.552;2023-01-16T05:39:48;91865.75;;;23.01;44.52
17521;BME280;8878;-33.370;-70.552;2023-01-16T05:42:18;91871.66;;;23.07;44.24
17521;BME280;8878;-33.370;-70.552;2023-01-16T05:44:54;91870.38;;;23.01;44.05
17521;BME280;8878;-33.370;-70.552;2023-01-16T05:47:23;91867.41;;;23.06;43.98
17521;BME280;8878;-33.370;-70.552;2023-01-16T05:49:52;91868.06;;;23.03;44.03
17521;BME280;8878;-33.370;-70.552;2023-01-16T05:52:24;91867.28;;;23.02;43.61
17521;BME280;8878;-33.370;-70.552;2023-01-16T05:54:54;91871.50;;;23.00;43.78
17521;BME280;8878;-33.370;-70.552;2023-01-16T05:57:24;91868.44;;;22.86;44.16
17521;BME280;8878;-33.370;-70.552;2023-01-16T05:59:55;91858.03;;;22.84;44.00
17521;BME280;8878;-33.370;-70.552;2023-01-16T06:02:24;91865.16;;;22.77;44.46
17521;BME280;8878;-33.370;-70.552;2023-01-16T06:04:53;91865.59;;;22.79;44.42
17521;BME280;8878;-33.370;-70.552;2023-01-16T06:07:23;91849.69;;;22.74;44.45
17521;BME280;8878;-33.370;-70.552;2023-01-16T06:09:52;91862.00;;;22.75;44.69
17521;BME280;8878;-33.370;-70.552;2023-01-16T06:12:21;91861.03;;;22.67;45.32
17521;BME280;8878;-33.370;-70.552;2023-01-16T06:14:51;91852.00;;;22.59;46.46
17521;BME280;8878;-33.370;-70.552;2023-01-16T06:17:22;91851.84;;;22.68;46.50
17521;BME280;8878;-33.370;-70.552;2023-01-16T06:19:52;91854.53;;;22.68;45.86
17521;BME280;8878;-33.370;-70.552;2023-01-16T06:22:21;91855.31;;;22.69;45.94
17521;BME280;8878;-33.370;-70.552;2023-01-16T06:24:50;91860.25;;;22.66;45.71
17521;BME280;8878;-33.370;-70.552;2023-01-16T06:27:19;91857.47;;;22.63;46.46
17521;BME280;8878;-33.370;-70.552;2023-01-16T06:29:49;91854.63;;;22.56;45.88
17521;BME280;8878;-33.370;-70.552;2023-01-16T06:32:18;91855.56;;;22.63;45.70
17521;BME280;8878;-33.370;-70.552;2023-01-16T06:34:49;91848.63;;;22.62;45.16
17521;BME280;8878;-33.370;-70.552;2023-01-16T06:37:19;91845.78;;;22.55;46.03
17521;BME280;8878;-33.370;-70.552;2023-01-16T06:39:49;91840.22;;;22.48;45.76
17521;BME280;8878;-33.370;-70.552;2023-01-16T06:42:18;91833.53;;;22.42;46.24
17521;BME280;8878;-33.370;-70.552;2023-01-16T06:44:49;91837.34;;;22.41;45.33
17521;BME280;8878;-33.370;-70.552;2023-01-16T06:47:18;91834.66;;;22.41;45.41
17521;BME280;8878;-33.370;-70.552;2023-01-16T06:49:49;91832.06;;;22.45;46.02
17521;BME280;8878;-33.370;-70.552;2023-01-16T06:52:19;91832.66;;;22.38;46.56
17521;BME280;8878;-33.370;-70.552;2023-01-16T06:54:48;91833.44;;;22.39;46.82
17521;BME280;8878;-33.370;-70.552;2023-01-16T06:57:17;91828.66;;;22.32;46.33
17521;BME280;8878;-33.370;-70.552;2023-01-16T06:59:46;91829.72;;;22.43;45.82
17521;BME280;8878;-33.370;-70.552;2023-01-16T07:02:17;91830.75;;;22.54;44.46
17521;BME280;8878;-33.370;-70.552;2023-01-16T07:04:49;91827.38;;;22.57;44.87
17521;BME280;8878;-33.370;-70.552;2023-01-16T07:07:18;91828.25;;;22.61;44.94
17521;BME280;8878;-33.370;-70.552;2023-01-16T07:09:47;91831.72;;;22.62;44.70
17521;BME280;8878;-33.370;-70.552;2023-01-16T07:12:16;91832.50;;;22.62;45.29
17521;BME280;8878;-33.370;-70.552;2023-01-16T07:14:46;91830.31;;;22.52;45.26
17521;BME280;8878;-33.370;-70.552;2023-01-16T07:17:40;91834.03;;;22.32;45.20
17521;BME280;8878;-33.370;-70.552;2023-01-16T07:20:27;91827.63;;;22.21;45.10
17521;BME280;8878;-33.370;-70.552;2023-01-16T07:23:17;91829.44;;;22.33;44.04
17521;BME280;8878;-33.370;-70.552;2023-01-16T07:25:47;91827.63;;;22.21;43.17
17521;BME280;8878;-33.370;-70.552;2023-01-16T07:28:18;91820.69;;;22.36;44.16
17521;BME280;8878;-33.370;-70.552;2023-01-16T07:30:49;91827.44;;;22.45;44.71
17521;BME280;8878;-33.370;-70.552;2023-01-16T07:33:18;91833.97;;;22.44;45.13
17521;BME280;8878;-33.370;-70.552;2023-01-16T07:35:50;91828.16;;;22.42;45.25
17521;BME280;8878;-33.370;-70.552;2023-01-16T07:38:19;91831.72;;;22.46;45.77
17521;BME280;8878;-33.370;-70.552;2023-01-16T07:40:48;91830.41;;;22.40;45.48
17521;BME280;8878;-33.370;-70.552;2023-01-16T07:43:17;91830.94;;;22.30;45.85
17521;BME280;8878;-33.370;-70.552;2023-01-16T07:45:47;91833.16;;;22.28;45.55
17521;BME280;8878;-33.370;-70.552;2023-01-16T07:48:19;91826.69;;;22.29;45.13
17521;BME280;8878;-33.370;-70.552;2023-01-16T07:50:52;91820.50;;;22.13;46.08
17521;BME280;8878;-33.370;-70.552;2023-01-16T07:53:22;91827.72;;;21.97;46.55
17521;BME280;8878;-33.370;-70.552;2023-01-16T07:55:54;91830.13;;;22.14;45.90
17521;BME280;8878;-33.370;-70.552;2023-01-16T07:58:24;91819.09;;;22.19;45.36
17521;BME280;8878;-33.370;-70.552;2023-01-16T08:00:54;91823.84;;;22.10;46.22
17521;BME280;8878;-33.370;-70.552;2023-01-16T08:03:24;91825.16;;;22.00;46.47
17521;BME280;8878;-33.370;-70.552;2023-01-16T08:05:57;91826.78;;;22.05;46.29
17521;BME280;8878;-33.370;-70.552;2023-01-16T08:08:29;91831.63;;;21.99;45.89
17521;BME280;8878;-33.370;-70.552;2023-01-16T08:11:00;91829.50;;;21.93;46.60
17521;BME280;8878;-33.370;-70.552;2023-01-16T08:13:51;91839.94;;;21.94;47.04
17521;BME280;8878;-33.370;-70.552;2023-01-16T08:16:20;91837.47;;;21.89;48.15
17521;BME280;8878;-33.370;-70.552;2023-01-16T08:18:50;91833.78;;;21.81;48.46
17521;BME280;8878;-33.370;-70.552;2023-01-16T08:21:21;91833.66;;;21.62;48.44
17521;BME280;8878;-33.370;-70.552;2023-01-16T08:23:50;91832.66;;;21.67;48.91
17521;BME280;8878;-33.370;-70.552;2023-01-16T08:26:19;91832.47;;;21.75;48.98
17521;BME280;8878;-33.370;-70.552;2023-01-16T08:28:48;91840.97;;;21.77;48.59
17521;BME280;8878;-33.370;-70.552;2023-01-16T08:31:18;91840.13;;;21.73;48.41
17521;BME280;8878;-33.370;-70.552;2023-01-16T08:33:49;91841.44;;;21.79;48.29
17521;BME280;8878;-33.370;-70.552;2023-01-16T08:36:20;91848.59;;;21.75;47.89
17521;BME280;8878;-33.370;-70.552;2023-01-16T08:38:49;91848.06;;;21.70;47.90
17521;BME280;8878;-33.370;-70.552;2023-01-16T08:41:19;91851.06;;;21.80;46.64
17521;BME280;8878;-33.370;-70.552;2023-01-16T08:44:04;91857.75;;;21.86;47.04
17521;BME280;8878;-33.370;-70.552;2023-01-16T08:46:54;91858.41;;;21.83;47.25
17521;BME280;8878;-33.370;-70.552;2023-01-16T08:49:41;91854.66;;;21.72;47.54
17521;BME280;8878;-33.370;-70.552;2023-01-16T08:52:30;91865.97;;;21.66;47.75
17521;BME280;8878;-33.370;-70.552;2023-01-16T08:55:00;91864.88;;;21.67;47.85
17521;BME280;8878;-33.370;-70.552;2023-01-16T08:57:29;91866.84;;;21.70;47.38
17521;BME280;8878;-33.370;-70.552;2023-01-16T08:59:58;91864.63;;;21.72;47.06
17521;BME280;8878;-33.370;-70.552;2023-01-16T09:02:28;91868.31;;;21.67;47.63
17521;BME280;8878;-33.370;-70.552;2023-01-16T09:04:58;91868.47;;;21.59;47.60
17521;BME280;8878;-33.370;-70.552;2023-01-16T09:07:29;91869.81;;;21.53;47.59
17521;BME280;8878;-33.370;-70.552;2023-01-16T09:09:58;91871.16;;;21.46;47.74
17521;BME280;8878;-33.370;-70.552;2023-01-16T09:12:27;91872.31;;;21.45;47.63
17521;BME280;8878;-33.370;-70.552;2023-01-16T09:15:13;91877.53;;;21.42;48.14
17521;BME280;8878;-33.370;-70.552;2023-01-16T09:17:42;91878.44;;;21.34;48.04
17521;BME280;8878;-33.370;-70.552;2023-01-16T09:20:12;91885.84;;;21.37;48.01
17521;BME280;8878;-33.370;-70.552;2023-01-16T09:22:43;91883.81;;;21.34;48.10
17521;BME280;8878;-33.370;-70.552;2023-01-16T09:25:12;91886.84;;;21.32;47.98
17521;BME280;8878;-33.370;-70.552;2023-01-16T09:27:43;91891.88;;;21.22;48.40
17521;BME280;8878;-33.370;-70.552;2023-01-16T09:30:15;91901.06;;;21.21;48.67
17521;BME280;8878;-33.370;-70.552;2023-01-16T09:32:44;91896.47;;;21.21;47.85
17521;BME280;8878;-33.370;-70.552;2023-01-16T09:35:15;91896.22;;;21.26;48.02
17521;BME280;8878;-33.370;-70.552;2023-01-16T09:37:46;91899.81;;;21.18;48.15
17521;BME280;8878;-33.370;-70.552;2023-01-16T09:40:19;91896.72;;;21.16;48.58
17521;BME280;8878;-33.370;-70.552;2023-01-16T09:42:58;91900.34;;;21.11;48.56
17521;BME280;8878;-33.370;-70.552;2023-01-16T09:45:48;91901.38;;;21.19;48.18
17521;BME280;8878;-33.370;-70.552;2023-01-16T09:48:25;91895.44;;;21.14;48.43
17521;BME280;8878;-33.370;-70.552;2023-01-16T09:50:58;91903.03;;;21.11;49.18
17521;BME280;8878;-33.370;-70.552;2023-01-16T09:53:36;91905.72;;;21.11;49.01
17521;BME280;8878;-33.370;-70.552;2023-01-16T09:56:27;91904.41;;;21.18;48.31
17521;BME280;8878;-33.370;-70.552;2023-01-16T09:59:22;91901.94;;;21.25;47.68
17521;BME280;8878;-33.370;-70.552;2023-01-16T10:01:56;91910.31;;;21.35;46.74
17521;BME280;8878;-33.370;-70.552;2023-01-16T10:04:29;91910.66;;;21.34;47.36
17521;BME280;8878;-33.370;-70.552;2023-01-16T10:07:15;91908.19;;;21.41;46.63
17521;BME280;8878;-33.370;-70.552;2023-01-16T10:09:54;91905.72;;;21.48;46.47
17521;BME280;8878;-33.370;-70.552;2023-01-16T10:12:31;91898.66;;;21.56;46.04
17521;BME280;8878;-33.370;-70.552;2023-01-16T10:15:13;91902.56;;;21.58;46.41
17521;BME280;8878;-33.370;-70.552;2023-01-16T10:17:57;91905.22;;;21.70;45.66
17521;BME280;8878;-33.370;-70.552;2023-01-16T10:20:39;91902.09;;;21.68;45.65
17521;BME280;8878;-33.370;-70.552;2023-01-16T10:23:30;91911.03;;;21.72;45.47
17521;BME280;8878;-33.370;-70.552;2023-01-16T10:26:07;91915.09;;;21.66;46.30
17521;BME280;8878;-33.370;-70.552;2023-01-16T10:28:48;91910.72;;;21.74;46.47
17521;BME280;8878;-33.370;-70.552;2023-01-16T10:31:24;91914.34;;;21.81;46.11
17521;BME280;8878;-33.370;-70.552;2023-01-16T10:33:57;91915.72;;;21.75;46.04
17521;BME280;8878;-33.370;-70.552;2023-01-16T10:36:31;91918.19;;;21.68;46.45
17521;BME280;8878;-33.370;-70.552;2023-01-16T10:39:03;91924.72;;;21.55;46.71
17521;BME280;8878;-33.370;-70.552;2023-01-16T10:41:37;91925.34;;;21.76;46.08
17521;BME280;8878;-33.370;-70.552;2023-01-16T10:44:34;91920.88;;;21.80;46.18
17521;BME280;8878;-33.370;-70.552;2023-01-16T10:47:23;91928.94;;;21.68;45.42
17521;BME280;8878;-33.370;-70.552;2023-01-16T10:50:10;91926.88;;;21.89;45.47
17521;BME280;8878;-33.370;-70.552;2023-01-16T10:52:39;91931.13;;;22.03;45.04
17521;BME280;8878;-33.370;-70.552;2023-01-16T10:55:11;91927.66;;;22.02;45.20
17521;BME280;8878;-33.370;-70.552;2023-01-16T10:57:46;91930.09;;;22.07;45.07
17521;BME280;8878;-33.370;-70.552;2023-01-16T11:02:49;91932.16;;;22.26;44.42
17521;BME280;8878;-33.370;-70.552;2023-01-16T11:05:30;91931.75;;;22.40;44.09
17521;BME280;8878;-33.370;-70.552;2023-01-16T11:08:05;91925.19;;;22.53;43.95
17521;BME280;8878;-33.370;-70.552;2023-01-16T11:10:35;91935.34;;;22.44;43.54
17521;BME280;8878;-33.370;-70.552;2023-01-16T11:13:13;91929.78;;;22.52;43.70
17521;BME280;8878;-33.370;-70.552;2023-01-16T11:16:04;91929.63;;;22.73;43.70
17521;BME280;8878;-33.370;-70.552;2023-01-16T11:18:47;91932.06;;;22.94;42.72
17521;BME280;8878;-33.370;-70.552;2023-01-16T11:21:22;91934.75;;;22.94;42.83
17521;BME280;8878;-33.370;-70.552;2023-01-16T11:23:57;91940.28;;;23.17;41.88
17521;BME280;8878;-33.370;-70.552;2023-01-16T11:26:27;91948.63;;;23.27;41.29
17521;BME280;8878;-33.370;-70.552;2023-01-16T11:28:58;91954.19;;;23.34;41.14
17521;BME280;8878;-33.370;-70.552;2023-01-16T11:31:29;91949.31;;;23.56;39.96
17521;BME280;8878;-33.370;-70.552;2023-01-16T11:34:00;91948.69;;;23.47;39.97
17521;BME280;8878;-33.370;-70.552;2023-01-16T11:36:32;91947.47;;;22.81;40.50
17521;BME280;8878;-33.370;-70.552;2023-01-16T11:39:04;91958.50;;;23.23;40.61
17521;BME280;8878;-33.370;-70.552;2023-01-16T11:41:38;91960.53;;;23.11;40.67
17521;BME280;8878;-33.370;-70.552;2023-01-16T11:44:14;91963.53;;;22.78;41.55
17521;BME280;8878;-33.370;-70.552;2023-01-16T11:47:01;91958.50;;;22.76;41.86
17521;BME280;8878;-33.370;-70.552;2023-01-16T11:49:35;91968.22;;;22.53;42.46
17521;BME280;8878;-33.370;-70.552;2023-01-16T11:52:05;91968.16;;;22.09;43.46
17521;BME280;8878;-33.370;-70.552;2023-01-16T11:54:34;91958.50;;;22.48;43.03
17521;BME280;8878;-33.370;-70.552;2023-01-16T11:57:19;91965.09;;;22.79;41.81
17521;BME280;8878;-33.370;-70.552;2023-01-16T12:00:17;91962.41;;;22.79;42.29
17521;BME280;8878;-33.370;-70.552;2023-01-16T12:03:11;91965.13;;;23.10;42.30
17521;BME280;8878;-33.370;-70.552;2023-01-16T12:05:55;91966.69;;;23.11;41.41
17521;BME280;8878;-33.370;-70.552;2023-01-16T12:08:45;91972.16;;;23.15;40.86
17521;BME280;8878;-33.370;-70.552;2023-01-16T12:11:25;91963.03;;;23.03;41.00
17521;BME280;8878;-33.370;-70.552;2023-01-16T12:14:00;91968.56;;;22.95;40.93
17521;BME280;8878;-33.370;-70.552;2023-01-16T12:17:09;91969.28;;;22.92;40.27
17521;BME280;8878;-33.370;-70.552;2023-01-16T12:19:56;91975.63;;;23.31;40.09
17521;BME280;8878;-33.370;-70.552;2023-01-16T12:22:46;91961.75;;;23.29;39.73
17521;BME280;8878;-33.370;-70.552;2023-01-16T12:25:25;91970.50;;;23.41;40.32
17521;BME280;8878;-33.370;-70.552;2023-01-16T12:28:02;91973.53;;;23.40;40.36
17521;BME280;8878;-33.370;-70.552;2023-01-16T12:33:57;91969.97;;;23.67;39.70
17521;BME280;8878;-33.370;-70.552;2023-01-16T12:36:38;91967.28;;;23.67;40.18
17521;BME280;8878;-33.370;-70.552;2023-01-16T12:39:19;91980.41;;;23.53;40.46
17521;BME280;8878;-33.370;-70.552;2023-01-16T12:41:58;91976.53;;;24.01;39.99
17521;BME280;8878;-33.370;-70.552;2023-01-16T12:45:03;91983.69;;;24.29;38.21
17521;BME280;8878;-33.370;-70.552;2023-01-16T12:47:49;91983.03;;;24.54;38.59
17521;BME280;8878;-33.370;-70.552;2023-01-16T12:50:34;91983.69;;;24.13;39.19
17521;BME280;8878;-33.370;-70.552;2023-01-16T12:53:32;91989.41;;;23.92;40.32
17521;BME280;8878;-33.370;-70.552;2023-01-16T12:56:17;91981.50;;;24.18;38.95
17521;BME280;8878;-33.370;-70.552;2023-01-16T12:58:53;91991.63;;;24.79;38.43
17521;BME280;8878;-33.370;-70.552;2023-01-16T13:01:25;91990.78;;;24.37;38.26
17521;BME280;8878;-33.370;-70.552;2023-01-16T13:04:02;91986.88;;;24.18;37.48
17521;BME280;8878;-33.370;-70.552;2023-01-16T13:06:40;91989.00;;;24.09;37.18
17521;BME280;8878;-33.370;-70.552;2023-01-16T13:09:17;91993.00;;;24.15;37.37
17521;BME280;8878;-33.370;-70.552;2023-01-16T13:12:00;91999.03;;;24.44;38.36
17521;BME280;8878;-33.370;-70.552;2023-01-16T13:14:52;91995.38;;;24.55;38.65
17521;BME280;8878;-33.370;-70.552;2023-01-16T13:17:25;91995.94;;;24.84;36.99
17521;BME280;8878;-33.370;-70.552;2023-01-16T13:19:56;91996.81;;;24.69;37.62
17521;BME280;8878;-33.370;-70.552;2023-01-16T13:22:33;91990.63;;;24.49;38.52
17521;BME280;8878;-33.370;-70.552;2023-01-16T13:25:09;91994.09;;;24.69;36.79
17521;BME280;8878;-33.370;-70.552;2023-01-16T13:27:45;91992.91;;;24.47;36.98
17521;BME280;8878;-33.370;-70.552;2023-01-16T13:30:19;91995.50;;;25.01;37.20